Time;durP1;ratioP1;P1;durP2;ratioP2;P2;SDS_P1;SDS_P2;PMS_P1;PMS_P2;Temp;Humidity;BMP_temperature;BMP_pressure;BME280_temperature;BME280_humidity;BME280_pressure;Samples;Min_cycle;Max_cycle;Signal;HPM_P1;HPM_P2
2021/12/27 00:02:06;;;;;;;27.23;17.57;;;;;;;;;;4734812;30;20981;-89
2021/12/27 00:05:10;;;;;;;28.80;17.83;;;;;;;;;;4742159;30;20608;-89
2021/12/27 00:08:15;;;;;;;27.60;17.83;;;;;;;;;;4731814;30;20570;-89
2021/12/27 00:11:19;;;;;;;26.87;18.17;;;;;;;;;;4741976;30;20613;-89
2021/12/27 00:14:23;;;;;;;27.90;18.10;;;;;;;;;;4752089;30;20636;-89
2021/12/27 00:17:28;;;;;;;28.97;18.60;;;;;;;;;;4741951;30;20664;-86
2021/12/27 00:20:32;;;;;;;31.00;18.70;;;;;;;;;;4731655;30;20617;-86
2021/12/27 00:23:36;;;;;;;31.93;19.20;;;;;;;;;;4742072;30;20632;-86
2021/12/27 00:26:39;;;;;;;33.43;19.90;;;;;;;;;;4731535;30;20616;-86
2021/12/27 00:29:44;;;;;;;27.87;18.13;;;;;;;;;;4751842;30;20620;-86
2021/12/27 00:32:50;;;;;;;29.00;18.20;;;;;;;;;;4729313;30;20688;-86
2021/12/27 00:35:54;;;;;;;29.87;17.50;;;;;;;;;;4734947;30;20553;-86
2021/12/27 00:38:58;;;;;;;28.40;19.00;;;;;;;;;;4745229;30;20664;-86
2021/12/27 00:42:03;;;;;;;28.63;18.87;;;;;;;;;;4754999;30;20636;-86
2021/12/27 00:45:08;;;;;;;29.60;19.13;;;;;;;;;;4735147;30;20628;-86
2021/12/27 00:48:15;;;;;;;31.87;18.87;;;;;;;;;;4755543;30;21070;-86
2021/12/27 00:51:19;;;;;;;29.90;18.20;;;;;;;;;;4734647;30;20625;-86
2021/12/27 00:54:23;;;;;;;31.67;19.43;;;;;;;;;;4746244;30;20660;-86
2021/12/27 00:57:27;;;;;;;29.70;19.47;;;;;;;;;;4744938;30;20660;-86
2021/12/27 01:00:31;;;;;;;30.03;18.73;;;;;;;;;;4744951;30;20613;-86
2021/12/27 01:03:35;;;;;;;29.27;18.83;;;;;;;;;;4735156;30;20652;-86
2021/12/27 01:06:39;;;;;;;29.57;18.67;;;;;;;;;;4755384;30;20553;-86
2021/12/27 01:19:12;;;;;;;31.73;20.10;;;;;;;;;;4744857;30;20657;-86
2021/12/27 01:22:17;;;;;;;32.37;19.30;;;;;;;;;;4744980;30;20561;-86
2021/12/27 01:25:21;;;;;;;31.97;19.43;;;;;;;;;;4744823;30;20609;-86
2021/12/27 01:28:26;;;;;;;33.17;20.37;;;;;;;;;;4734814;30;20554;-86
2021/12/27 01:31:29;;;;;;;32.73;19.50;;;;;;;;;;4744488;30;21121;-86
2021/12/27 01:34:34;;;;;;;31.70;19.53;;;;;;;;;;4744656;30;20574;-86
2021/12/27 01:37:38;;;;;;;33.27;19.03;;;;;;;;;;4754682;30;20605;-86
2021/12/27 01:40:46;;;;;;;31.00;19.30;;;;;;;;;;4754684;30;20569;-86
2021/12/27 01:43:52;;;;;;;33.20;19.87;;;;;;;;;;4744609;30;20648;-86
2021/12/27 01:46:56;;;;;;;31.67;19.10;;;;;;;;;;4734427;30;20604;-86
2021/12/27 01:50:00;;;;;;;28.83;18.47;;;;;;;;;;4743968;30;20616;-86
2021/12/27 01:53:05;;;;;;;32.33;19.30;;;;;;;;;;4746965;30;20641;-86
2021/12/27 01:56:12;;;;;;;33.63;19.83;;;;;;;;;;4727129;30;20558;-86
2021/12/27 01:59:16;;;;;;;30.87;19.20;;;;;;;;;;4726677;30;20625;-86
2021/12/27 02:02:20;;;;;;;31.57;19.03;;;;;;;;;;4716365;30;20606;-86
2021/12/27 02:05:24;;;;;;;31.20;19.80;;;;;;;;;;4716640;30;20567;-86
2021/12/27 02:08:28;;;;;;;31.50;19.90;;;;;;;;;;4736687;30;20555;-86
2021/12/27 02:11:34;;;;;;;28.83;18.97;;;;;;;;;;4736421;30;20562;-86
2021/12/27 02:14:39;;;;;;;31.13;19.37;;;;;;;;;;4726570;30;20565;-86
2021/12/27 02:17:44;;;;;;;31.57;19.67;;;;;;;;;;4726406;30;20606;-86
2021/12/27 02:20:48;;;;;;;28.77;18.60;;;;;;;;;;4736762;30;20605;-86
2021/12/27 02:23:54;;;;;;;31.27;18.70;;;;;;;;;;4733741;30;20978;-86
2021/12/27 02:26:58;;;;;;;31.13;18.87;;;;;;;;;;4743766;30;21141;-86
2021/12/27 02:30:06;;;;;;;30.50;19.60;;;;;;;;;;4743921;30;20553;-86
2021/12/27 02:33:11;;;;;;;31.63;19.60;;;;;;;;;;4733716;30;20633;-86
2021/12/27 02:36:16;;;;;;;32.73;19.67;;;;;;;;;;4744046;30;20562;-86
2021/12/27 02:39:20;;;;;;;32.53;19.30;;;;;;;;;;4746707;30;20681;-86
2021/12/27 02:42:23;;;;;;;34.47;20.70;;;;;;;;;;4751030;30;20976;-86
2021/12/27 02:45:30;;;;;;;31.20;18.67;;;;;;;;;;4760960;30;20612;-86
2021/12/27 02:48:40;;;;;;;31.90;19.27;;;;;;;;;;4750796;30;20557;-87
2021/12/27 02:51:44;;;;;;;33.80;20.83;;;;;;;;;;4751083;30;20553;-86
2021/12/27 02:54:48;;;;;;;34.63;20.10;;;;;;;;;;4761142;30;20569;-86
2021/12/27 02:57:53;;;;;;;28.70;19.40;;;;;;;;;;4705409;30;20676;-87
2021/12/27 03:01:08;;;;;;;34.03;19.93;;;;;;;;;;4732490;30;21223;-86
2021/12/27 03:04:12;;;;;;;34.97;19.67;;;;;;;;;;4735384;30;20653;-86
2021/12/27 03:07:16;;;;;;;29.80;18.50;;;;;;;;;;4770362;30;20608;-86
2021/12/27 03:10:24;;;;;;;32.20;19.10;;;;;;;;;;4758622;30;20596;-86
2021/12/27 03:13:31;;;;;;;30.33;19.07;;;;;;;;;;4771474;30;20724;-86
2021/12/27 03:16:35;;;;;;;30.57;19.27;;;;;;;;;;4760741;30;20549;-86
2021/12/27 03:19:39;;;;;;;30.07;18.77;;;;;;;;;;4760306;30;20615;-86
2021/12/27 03:22:44;;;;;;;30.50;19.00;;;;;;;;;;4760606;30;20627;-86
2021/12/27 03:25:48;;;;;;;33.03;19.83;;;;;;;;;;4727217;30;20596;-86
2021/12/27 03:28:52;;;;;;;28.43;18.73;;;;;;;;;;4760440;30;20565;-86
2021/12/27 03:31:58;;;;;;;29.77;18.63;;;;;;;;;;4750439;30;20557;-86
2021/12/27 03:35:10;;;;;;;31.60;19.53;;;;;;;;;;4759690;30;20608;-86
2021/12/27 03:38:14;;;;;;;30.63;19.43;;;;;;;;;;4769299;30;20609;-86
2021/12/27 03:41:22;;;;;;;33.10;19.40;;;;;;;;;;4732430;30;20932;-86
2021/12/27 03:44:26;;;;;;;30.87;19.43;;;;;;;;;;4742638;30;20637;-86
2021/12/27 03:47:31;;;;;;;30.63;19.17;;;;;;;;;;4732431;30;20624;-86
2021/12/27 03:50:35;;;;;;;28.67;18.70;;;;;;;;;;4754033;30;20609;-86
2021/12/27 03:53:39;;;;;;;29.67;18.30;;;;;;;;;;4759732;30;20639;-86
2021/12/27 03:56:43;;;;;;;31.77;18.87;;;;;;;;;;4749916;30;20619;-86
2021/12/27 03:59:53;;;;;;;31.93;19.50;;;;;;;;;;4754094;30;20668;-87
2021/12/27 04:03:00;;;;;;;27.40;19.37;;;;;;;;;;4722041;30;20994;-86
2021/12/27 04:06:25;;;;;;;28.40;18.47;;;;;;;;;;4744681;30;20566;-86
2021/12/27 04:09:47;;;;;;;29.87;18.83;;;;;;;;;;4748472;30;20596;-86
2021/12/27 04:13:11;;;;;;;30.47;18.63;;;;;;;;;;4762065;30;20628;-86
2021/12/27 04:16:16;;;;;;;32.63;19.07;;;;;;;;;;4769942;30;20557;-86
2021/12/27 04:19:20;;;;;;;27.97;18.63;;;;;;;;;;4757805;30;20659;-88
2021/12/27 04:22:25;;;;;;;32.37;18.90;;;;;;;;;;4741797;30;20621;-86
2021/12/27 04:25:29;;;;;;;32.57;19.17;;;;;;;;;;4732001;30;20553;-86
2021/12/27 04:28:33;;;;;;;30.73;19.20;;;;;;;;;;4741746;30;20963;-89
2021/12/27 04:31:37;;;;;;;29.20;18.90;;;;;;;;;;4724182;30;20618;-88
2021/12/27 04:34:41;;;;;;;29.33;18.63;;;;;;;;;;4741555;30;20581;-86
2021/12/27 04:37:47;;;;;;;30.23;19.40;;;;;;;;;;4731989;30;20549;-89
2021/12/27 04:40:52;;;;;;;30.90;19.73;;;;;;;;;;4732168;30;20558;-86
2021/12/27 04:43:56;;;;;;;29.17;18.67;;;;;;;;;;4721906;30;21230;-86
2021/12/27 04:47:00;;;;;;;32.33;19.37;;;;;;;;;;4741646;30;21200;-86
2021/12/27 04:50:05;;;;;;;29.57;18.60;;;;;;;;;;4732154;30;20545;-86
2021/12/27 04:53:09;;;;;;;31.40;18.77;;;;;;;;;;4741948;30;20632;-88
2021/12/27 04:56:13;;;;;;;27.60;19.03;;;;;;;;;;4731748;30;20565;-88
2021/12/27 04:59:17;;;;;;;29.77;18.53;;;;;;;;;;4750828;30;20601;-87
2021/12/27 05:02:22;;;;;;;30.37;18.73;;;;;;;;;;4738527;30;20612;-88
2021/12/27 05:05:27;;;;;;;32.50;19.10;;;;;;;;;;4809261;24;21251;-90
2021/12/27 05:08:31;;;;;;;30.27;18.53;;;;;;;;;;4749121;30;20592;-90
2021/12/27 05:11:35;;;;;;;27.87;17.27;;;;;;;;;;4739365;30;20564;-91
2021/12/27 05:14:39;;;;;;;27.07;18.33;;;;;;;;;;4738179;30;20672;-91
2021/12/27 05:17:43;;;;;;;29.90;18.60;;;;;;;;;;4741847;30;20576;-90
2021/12/27 05:20:47;;;;;;;28.33;18.53;;;;;;;;;;4733054;30;20554;-91
2021/12/27 05:23:51;;;;;;;26.83;18.40;;;;;;;;;;4744941;30;20628;-90
2021/12/27 05:26:55;;;;;;;27.97;18.40;;;;;;;;;;4744867;30;20553;-90
2021/12/27 05:29:59;;;;;;;26.30;18.00;;;;;;;;;;4754978;30;21081;-91
2021/12/27 05:33:03;;;;;;;27.10;18.67;;;;;;;;;;4744508;30;20616;-91
2021/12/27 05:36:08;;;;;;;29.30;17.83;;;;;;;;;;4755092;30;20620;-90
2021/12/27 05:40:05;;;;;;;29.70;18.63;;;;;;;;;;4735257;30;21199;-93
2021/12/27 05:49:26;;;;;;;31.63;19.67;;;;;;;;;;4743264;30;20543;-89
2021/12/27 05:54:42;;;;;;;28.80;18.90;;;;;;;;;;4709948;30;20653;-91
2021/12/27 06:10:11;;;;;;;28.73;17.93;;;;;;;;;;4718725;30;20691;-90
2021/12/27 06:13:15;;;;;;;31.37;19.33;;;;;;;;;;4724352;30;20629;-91
2021/12/27 06:16:20;;;;;;;31.70;18.87;;;;;;;;;;4744297;30;21122;-92
2021/12/27 06:19:24;;;;;;;32.00;19.27;;;;;;;;;;4753991;30;20608;-91
2021/12/27 06:22:29;;;;;;;27.47;17.83;;;;;;;;;;4743997;30;20561;-92
2021/12/27 06:25:33;;;;;;;31.43;20.47;;;;;;;;;;4753963;30;20628;-92
2021/12/27 06:28:38;;;;;;;30.07;19.23;;;;;;;;;;4743769;30;20620;-91
2021/12/27 06:31:42;;;;;;;28.67;18.47;;;;;;;;;;4742948;30;20617;-91
2021/12/27 06:34:46;;;;;;;28.73;17.53;;;;;;;;;;4733786;30;20978;-91
2021/12/27 06:37:51;;;;;;;28.63;18.97;;;;;;;;;;4753591;30;20549;-91
2021/12/27 06:40:56;;;;;;;31.67;18.53;;;;;;;;;;4725978;30;20665;-91
2021/12/27 06:44:01;;;;;;;28.30;18.60;;;;;;;;;;4733190;30;20664;-91
2021/12/27 06:47:05;;;;;;;31.77;20.00;;;;;;;;;;4739703;30;20951;-91
2021/12/27 06:50:11;;;;;;;29.83;18.63;;;;;;;;;;4743210;30;20898;-92
2021/12/27 06:53:16;;;;;;;28.87;18.73;;;;;;;;;;4743269;30;20561;-91
2021/12/27 06:56:20;;;;;;;31.30;19.23;;;;;;;;;;4723290;30;20609;-91
2021/12/27 06:59:24;;;;;;;30.03;19.03;;;;;;;;;;4743364;30;20656;-91
2021/12/27 07:02:28;;;;;;;32.43;19.00;;;;;;;;;;4732839;30;20613;-91
2021/12/27 07:05:32;;;;;;;29.97;18.77;;;;;;;;;;4742835;30;20636;-91
2021/12/27 07:08:36;;;;;;;28.93;18.87;;;;;;;;;;4740361;30;20592;-92
2021/12/27 07:11:41;;;;;;;32.67;19.40;;;;;;;;;;4753166;30;20989;-92
2021/12/27 07:14:47;;;;;;;29.93;19.47;;;;;;;;;;4743570;30;20644;-93
2021/12/27 07:17:52;;;;;;;45.57;26.20;;;;;;;;;;4747452;30;20608;-92
2021/12/27 07:20:56;;;;;;;40.87;23.80;;;;;;;;;;4743165;30;20609;-92
2021/12/27 07:24:00;;;;;;;51.17;31.53;;;;;;;;;;4742750;30;20657;-92
2021/12/27 07:27:04;;;;;;;40.23;24.37;;;;;;;;;;4732176;30;20585;-92
2021/12/27 07:30:12;;;;;;;35.17;22.33;;;;;;;;;;4732627;30;20585;-92
2021/12/27 07:33:16;;;;;;;33.17;20.97;;;;;;;;;;4732357;30;20645;-91
2021/12/27 07:36:20;;;;;;;31.00;20.20;;;;;;;;;;4742177;30;20632;-92
2021/12/27 07:39:26;;;;;;;36.70;21.30;;;;;;;;;;4763769;30;20650;-92
2021/12/27 07:42:30;;;;;;;33.47;21.40;;;;;;;;;;4751907;30;20931;-91
2021/12/27 07:45:34;;;;;;;32.33;20.57;;;;;;;;;;4742533;30;20629;-88
2021/12/27 07:48:38;;;;;;;30.87;19.77;;;;;;;;;;4760945;30;20594;-89
2021/12/27 07:51:42;;;;;;;34.17;21.93;;;;;;;;;;4728286;30;20589;-89
2021/12/27 07:54:47;;;;;;;32.93;20.17;;;;;;;;;;4732460;30;20656;-89
2021/12/27 09:13:30;;;;;;;26.90;17.90;;;;;;;;;;4754097;30;20227;-90
2021/12/27 09:16:34;;;;;;;28.50;18.53;;;;;;;;;;4735424;30;20226;-90
2021/12/27 09:19:39;;;;;;;29.43;19.07;;;;;;;;;;4740221;30;20198;-87
2021/12/27 09:22:43;;;;;;;28.70;19.60;;;;;;;;;;4737505;30;20191;-89
2021/12/27 09:25:48;;;;;;;29.70;18.73;;;;;;;;;;4727519;30;20235;-89
2021/12/27 09:34:53;;;;;;;25.63;17.40;;;;;;;;;;4743395;30;20196;-90
2021/12/27 09:49:55;;;;;;;27.73;17.23;;;;;;;;;;4684475;30;20224;-92
2021/12/27 09:53:02;;;;;;;27.43;18.07;;;;;;;;;;4664770;30;20205;-90
2021/12/27 09:56:08;;;;;;;26.00;17.07;;;;;;;;;;4697029;30;20227;-90
2021/12/27 09:59:12;;;;;;;26.80;18.23;;;;;;;;;;4718728;30;20187;-90
2021/12/27 10:02:23;;;;;;;27.43;18.63;;;;;;;;;;4717248;30;20192;-90
2021/12/27 10:05:30;;;;;;;26.30;17.13;;;;;;;;;;4717124;30;20231;-91
2021/12/27 10:08:36;;;;;;;24.87;17.03;;;;;;;;;;4717411;30;20192;-90
2021/12/27 10:11:43;;;;;;;28.17;17.27;;;;;;;;;;4717746;30;20211;-89
2021/12/27 10:14:52;;;;;;;25.53;16.47;;;;;;;;;;4727642;30;20223;-91
2021/12/27 10:18:07;;;;;;;25.80;17.97;;;;;;;;;;4727513;30;20196;-91
2021/12/27 10:21:14;;;;;;;23.37;16.63;;;;;;;;;;4727671;30;20223;-91
2021/12/27 10:24:27;;;;;;;24.50;16.83;;;;;;;;;;4734667;30;20202;-91
2021/12/27 10:27:34;;;;;;;22.53;15.90;;;;;;;;;;4724945;30;20187;-90
2021/12/27 10:30:44;;;;;;;24.47;16.17;;;;;;;;;;4734712;30;20207;-93
2021/12/27 10:33:49;;;;;;;25.77;16.93;;;;;;;;;;4724965;30;20184;-92
2021/12/27 10:37:08;;;;;;;24.40;16.33;;;;;;;;;;4711726;30;20200;-93
2021/12/27 10:40:13;;;;;;;23.40;15.47;;;;;;;;;;4709017;30;20197;-92
2021/12/27 10:43:18;;;;;;;26.03;16.03;;;;;;;;;;4708759;30;20193;-90
2021/12/27 10:46:22;;;;;;;22.83;15.70;;;;;;;;;;4708452;30;20696;-90
2021/12/27 10:49:50;;;;;;;27.17;17.60;;;;;;;;;;4720774;30;20188;-94
2021/12/27 10:58:20;;;;;;;30.10;18.20;;;;;;;;;;4728237;30;20193;-92
2021/12/27 11:01:26;;;;;;;25.70;17.63;;;;;;;;;;4721468;30;20224;-91
2021/12/27 12:50:30;;;;;;;23.57;15.73;;;;;;;;;;4755188;30;20671;-92
2021/12/27 12:53:34;;;;;;;24.33;16.23;;;;;;;;;;4722074;30;20194;-91
2021/12/27 12:56:38;;;;;;;26.70;17.00;;;;;;;;;;4721922;30;20670;-91
2021/12/27 12:59:59;;;;;;;26.17;17.77;;;;;;;;;;4742058;30;20635;-90
2021/12/27 13:03:14;;;;;;;30.70;19.87;;;;;;;;;;4722016;30;20187;-90
2021/12/27 13:06:18;;;;;;;31.13;19.70;;;;;;;;;;4731685;30;20235;-89
2021/12/27 13:09:50;;;;;;;30.27;20.03;;;;;;;;;;4722722;30;20640;-92
2021/12/27 13:13:00;;;;;;;29.03;19.10;;;;;;;;;;4732146;30;20187;-90
2021/12/27 13:16:05;;;;;;;31.77;19.80;;;;;;;;;;4742340;30;20223;-90
2021/12/27 13:19:10;;;;;;;31.57;20.00;;;;;;;;;;4722089;30;20541;-90
2021/12/27 13:22:45;;;;;;;31.10;20.13;;;;;;;;;;4722026;30;20219;-89
2021/12/27 13:25:51;;;;;;;28.73;18.77;;;;;;;;;;4741889;30;20231;-90
2021/12/27 13:29:01;;;;;;;27.83;17.83;;;;;;;;;;4731864;30;20621;-90
2021/12/27 13:32:05;;;;;;;29.07;18.10;;;;;;;;;;4721805;30;20613;-90
2021/12/27 13:35:12;;;;;;;31.83;19.93;;;;;;;;;;4731931;30;20644;-90
2021/12/27 13:38:25;;;;;;;29.53;19.10;;;;;;;;;;4732329;30;20568;-89
2021/12/27 13:41:33;;;;;;;32.53;20.00;;;;;;;;;;4732705;30;20613;-89
2021/12/27 13:44:37;;;;;;;32.37;20.30;;;;;;;;;;4725000;30;20644;-90
2021/12/27 13:47:54;;;;;;;32.37;20.80;;;;;;;;;;4725069;30;20625;-89
2021/12/27 13:51:00;;;;;;;32.13;19.63;;;;;;;;;;4724853;30;20210;-90
2021/12/27 13:54:18;;;;;;;29.77;18.73;;;;;;;;;;4734826;30;21085;-90
2021/12/27 13:57:36;;;;;;;30.07;18.63;;;;;;;;;;4735002;30;20562;-89
2021/12/27 14:00:41;;;;;;;29.07;19.33;;;;;;;;;;4724817;30;20199;-89
2021/12/27 14:03:48;;;;;;;29.23;18.80;;;;;;;;;;4724855;30;20188;-89
2021/12/27 14:06:54;;;;;;;31.60;20.93;;;;;;;;;;4734601;30;20557;-89
2021/12/27 14:09:59;;;;;;;32.43;19.97;;;;;;;;;;4734636;30;20553;-89
2021/12/27 14:13:03;;;;;;;37.07;21.20;;;;;;;;;;4744677;30;20558;-91
2021/12/27 14:16:27;;;;;;;30.57;21.00;;;;;;;;;;4734332;30;21005;-92
2021/12/27 14:19:31;;;;;;;34.70;20.43;;;;;;;;;;4724603;30;20562;-92
2021/12/27 14:32:02;;;;;;;36.07;19.70;;;;;;;;;;4739329;30;20614;-90
2021/12/27 14:45:14;;;;;;;35.93;21.20;;;;;;;;;;4733084;30;20665;-91
2021/12/27 15:14:39;;;;;;;40.73;23.07;;;;;;;;;;4753642;30;20627;-91
2021/12/27 15:17:49;;;;;;;52.80;23.37;;;;;;;;;;4732925;30;20635;-91
2021/12/27 15:20:53;;;;;;;44.40;25.30;;;;;;;;;;4722822;30;20625;-91
2021/12/27 15:24:03;;;;;;;42.93;23.70;;;;;;;;;;4728292;30;20606;-91
2021/12/27 15:27:09;;;;;;;43.10;24.30;;;;;;;;;;4706699;30;20562;-90
2021/12/27 15:30:41;;;;;;;46.03;23.27;;;;;;;;;;4717524;30;20570;-91
2021/12/27 15:33:46;;;;;;;43.77;24.03;;;;;;;;;;4715270;30;20567;-92
2021/12/27 15:36:50;;;;;;;41.93;23.20;;;;;;;;;;4724927;30;20614;-89
2021/12/27 15:39:58;;;;;;;40.20;22.90;;;;;;;;;;4705103;30;20567;-90
2021/12/27 15:43:04;;;;;;;38.40;21.43;;;;;;;;;;4714981;30;20622;-90
2021/12/27 15:46:34;;;;;;;40.77;23.07;;;;;;;;;;4718863;30;21263;-92
2021/12/27 15:49:39;;;;;;;61.10;34.97;;;;;;;;;;4720697;30;20546;-91
2021/12/27 15:52:46;;;;;;;46.83;27.33;;;;;;;;;;4705758;30;20550;-90
2021/12/27 17:30:09;;;;;;;49.53;26.70;;;;;;;;;;4731521;30;20645;-90
2021/12/27 17:33:17;;;;;;;52.40;28.70;;;;;;;;;;4717586;30;20619;-89
2021/12/27 17:46:30;;;;;;;54.63;29.30;;;;;;;;;;4720121;30;20653;-90
2021/12/27 17:49:36;;;;;;;63.47;31.50;;;;;;;;;;4699776;30;20566;-89
2021/12/27 18:11:59;;;;;;;71.50;30.70;;;;;;;;;;4714485;30;20909;-89
2021/12/27 18:15:08;;;;;;;62.63;32.07;;;;;;;;;;4697036;30;20660;-91
2021/12/27 18:18:12;;;;;;;60.37;29.40;;;;;;;;;;4716710;30;20923;-89
2021/12/27 18:36:32;;;;;;;58.53;28.27;;;;;;;;;;4736932;30;20682;-89
2021/12/27 18:41:47;;;;;;;56.17;27.63;;;;;;;;;;4668425;30;20637;-91
2021/12/27 18:45:02;;;;;;;57.57;29.43;;;;;;;;;;4719627;30;20668;-89
2021/12/27 18:48:58;;;;;;;62.80;30.90;;;;;;;;;;4720387;30;20607;-89
2021/12/27 23:06:17;;;;;;;59.93;27.53;;;;;;;;;;4754117;30;20997;-90
